createdAt,value
2023-01-27T00:00:53.441Z,22.80
2023-01-27T00:03:24.643Z,21.70
2023-01-27T00:05:51.911Z,22.03
2023-01-27T00:08:18.870Z,20.90
2023-01-27T00:10:46.224Z,21.57
2023-01-27T00:13:32.044Z,25.00
2023-01-27T00:15:59.560Z,21.73
2023-01-27T00:18:26.638Z,21.20
2023-01-27T00:21:12.845Z,21.37
2023-01-27T00:23:58.048Z,20.30
2023-01-27T00:26:25.267Z,21.33
2023-01-27T00:28:52.324Z,22.03
2023-01-27T00:31:38.127Z,21.13
2023-01-27T00:34:11.311Z,24.03
2023-01-27T00:36:41.455Z,23.57
2023-01-27T00:39:10.460Z,23.50
2023-01-27T00:41:39.472Z,25.23
2023-01-27T00:44:07.426Z,24.90
2023-01-27T00:46:34.920Z,24.70
2023-01-27T00:49:01.996Z,24.87
2023-01-27T00:51:30.935Z,25.77
2023-01-27T00:53:59.315Z,25.03
2023-01-27T00:56:28.227Z,23.60
2023-01-27T00:58:55.725Z,25.03
2023-01-27T01:01:23.680Z,24.17
2023-01-27T01:03:50.930Z,23.90
2023-01-27T01:06:19.513Z,23.40
2023-01-27T01:08:48.778Z,24.70
2023-01-27T01:11:17.472Z,23.13
2023-01-27T01:13:45.214Z,24.27
2023-01-27T01:16:13.850Z,23.10
2023-01-27T01:18:41.990Z,23.40
2023-01-27T01:21:09.944Z,22.37
2023-01-27T01:23:42.188Z,23.13
2023-01-27T01:26:11.426Z,23.50
2023-01-27T01:28:38.607Z,22.73
2023-01-27T01:31:09.164Z,21.40
2023-01-27T01:33:36.863Z,20.77
2023-01-27T01:36:11.805Z,22.17
2023-01-27T01:38:38.907Z,21.87
2023-01-27T01:41:08.294Z,22.00
2023-01-27T01:43:35.329Z,21.37
2023-01-27T01:46:03.334Z,31.93
2023-01-27T01:49:03.605Z,65.77
2023-01-27T01:51:41.175Z,28.13
2023-01-27T01:54:28.346Z,24.00
2023-01-27T01:57:02.764Z,22.80
2023-01-27T01:59:36.288Z,21.23
2023-01-27T02:02:07.264Z,22.67
2023-01-27T02:04:38.962Z,22.63
2023-01-27T02:07:22.691Z,23.00
2023-01-27T02:09:52.275Z,22.90
2023-01-27T02:12:19.813Z,24.53
2023-01-27T02:14:46.790Z,23.53
2023-01-27T02:17:14.835Z,25.53
2023-01-27T02:19:54.449Z,24.17
2023-01-27T02:22:33.985Z,21.40
2023-01-27T02:25:11.437Z,21.97
2023-01-27T02:27:38.875Z,22.17
2023-01-27T02:30:06.416Z,22.17
2023-01-27T02:32:34.747Z,22.70
2023-01-27T02:35:02.041Z,23.17
2023-01-27T02:37:30.695Z,22.07
2023-01-27T02:39:58.347Z,23.43
2023-01-27T02:42:25.703Z,22.23
2023-01-27T02:44:52.655Z,29.37
2023-01-27T02:47:20.636Z,27.97
2023-01-27T02:49:47.642Z,73.83
2023-01-27T02:52:15.167Z,53.30
2023-01-27T02:54:42.141Z,32.10
2023-01-27T02:57:09.505Z,24.13
2023-01-27T02:59:47.517Z,25.57
2023-01-27T03:02:14.952Z,22.87
2023-01-27T03:04:42.092Z,23.47
2023-01-27T03:07:09.320Z,21.57
2023-01-27T03:09:36.322Z,21.93
2023-01-27T03:12:21.894Z,21.60
2023-01-27T03:15:08.817Z,21.70
2023-01-27T03:17:56.276Z,21.83
2023-01-27T03:20:23.447Z,20.73
2023-01-27T03:22:50.735Z,21.37
2023-01-27T03:25:20.362Z,21.37
2023-01-27T03:27:48.268Z,20.63
2023-01-27T03:30:38.765Z,21.33
2023-01-27T03:33:14.200Z,21.47
2023-01-27T03:36:21.322Z,21.80
2023-01-27T03:39:09.552Z,22.00
2023-01-27T03:41:55.386Z,20.40
2023-01-27T03:44:44.680Z,21.00
2023-01-27T03:47:11.668Z,19.90
2023-01-27T03:49:39.092Z,20.23
2023-01-27T03:52:06.022Z,20.67
2023-01-27T03:54:33.263Z,21.17
2023-01-27T03:57:06.020Z,19.90
2023-01-27T03:59:35.192Z,21.83
2023-01-27T04:02:21.199Z,19.90
2023-01-27T04:05:07.028Z,20.70
2023-01-27T04:07:37.345Z,20.00
2023-01-27T04:10:05.743Z,20.37
2023-01-27T04:12:32.828Z,20.47
2023-01-27T04:15:00.143Z,20.83
2023-01-27T04:17:27.171Z,19.67
2023-01-27T04:19:54.390Z,19.50
2023-01-27T04:22:21.927Z,20.17
2023-01-27T04:24:50.247Z,53.30
2023-01-27T04:27:18.948Z,20.90
2023-01-27T04:29:46.196Z,20.17
2023-01-27T04:32:13.803Z,19.50
2023-01-27T04:34:41.955Z,18.60
2023-01-27T04:37:09.645Z,20.03
2023-01-27T04:39:37.193Z,19.23
2023-01-27T04:42:04.624Z,18.20
2023-01-27T04:44:31.969Z,19.03
2023-01-27T04:46:59.080Z,18.33
2023-01-27T04:49:27.185Z,19.33
2023-01-27T04:51:55.156Z,18.60
2023-01-27T04:54:22.427Z,18.70
2023-01-27T04:56:58.477Z,21.87
2023-01-27T04:59:25.905Z,23.73
2023-01-27T05:01:52.983Z,26.00
2023-01-27T05:04:20.356Z,25.60
2023-01-27T05:06:47.328Z,23.30
2023-01-27T05:09:14.610Z,21.30
2023-01-27T05:11:41.621Z,19.17
2023-01-27T05:14:08.823Z,20.50
2023-01-27T05:16:35.928Z,18.80
2023-01-27T05:19:03.362Z,18.07
2023-01-27T05:21:31.127Z,18.77
2023-01-27T05:23:58.424Z,18.23
2023-01-27T05:26:27.715Z,18.30
2023-01-27T05:28:57.498Z,18.13
2023-01-27T05:31:29.586Z,18.63
2023-01-27T05:33:59.148Z,19.83
2023-01-27T05:36:26.738Z,18.37
2023-01-27T05:38:54.974Z,19.27
2023-01-27T05:41:22.306Z,19.93
2023-01-27T05:43:54.471Z,19.67
2023-01-27T05:46:24.536Z,19.03
2023-01-27T05:48:53.975Z,22.07
2023-01-27T05:51:23.158Z,23.30
2023-01-27T05:53:50.709Z,21.73
2023-01-27T05:56:19.348Z,20.87
2023-01-27T05:58:46.605Z,20.93
2023-01-27T06:01:19.252Z,20.17
2023-01-27T06:03:47.061Z,18.73
2023-01-27T06:06:15.823Z,21.53
2023-01-27T06:08:43.184Z,30.27
2023-01-27T06:11:10.289Z,33.97
2023-01-27T06:13:39.143Z,31.90
2023-01-27T06:16:09.518Z,28.17
2023-01-27T06:18:37.630Z,28.60
2023-01-27T06:21:08.479Z,25.33
2023-01-27T06:23:36.077Z,32.30
2023-01-27T06:26:23.259Z,27.77
2023-01-27T06:28:50.494Z,23.60
2023-01-27T06:31:20.976Z,21.70
2023-01-27T06:33:48.446Z,21.43
2023-01-27T06:36:17.811Z,21.47
2023-01-27T06:38:45.577Z,23.20
2023-01-27T06:41:12.611Z,25.53
2023-01-27T06:43:39.917Z,27.27
2023-01-27T06:46:06.924Z,21.43
2023-01-27T06:48:34.525Z,19.70
2023-01-27T06:51:01.659Z,18.67
2023-01-27T06:53:29.298Z,16.87
2023-01-27T06:55:58.093Z,20.10
2023-01-27T06:58:25.793Z,18.10
2023-01-27T07:00:53.746Z,20.50
2023-01-27T07:03:21.242Z,21.40
2023-01-27T07:05:48.223Z,21.53
2023-01-27T07:08:15.532Z,24.37
2023-01-27T07:10:42.513Z,28.90
2023-01-27T07:13:11.778Z,31.40
2023-01-27T07:15:39.155Z,32.00
2023-01-27T07:18:06.847Z,29.70
2023-01-27T07:20:33.881Z,32.23
2023-01-27T07:23:03.411Z,32.00
2023-01-27T07:25:31.886Z,28.27
2023-01-27T07:28:00.139Z,34.17
2023-01-27T07:30:28.150Z,41.90
2023-01-27T07:32:55.653Z,43.50
2023-01-27T07:35:23.676Z,31.47
2023-01-27T07:37:50.905Z,27.40
2023-01-27T07:40:18.565Z,28.80
2023-01-27T07:42:45.757Z,28.23
2023-01-27T07:45:12.789Z,23.33
2023-01-27T07:47:40.137Z,19.97
2023-01-27T07:50:08.106Z,18.60
2023-01-27T07:52:35.406Z,18.70
2023-01-27T07:55:02.315Z,18.90
2023-01-27T07:57:29.656Z,18.43
2023-01-27T07:59:56.796Z,18.83
2023-01-27T08:02:24.466Z,17.87
2023-01-27T08:04:53.534Z,19.03
2023-01-27T08:07:21.413Z,17.47
2023-01-27T08:09:48.783Z,19.40
2023-01-27T08:12:16.072Z,22.93
2023-01-27T08:14:43.102Z,23.00
2023-01-27T08:17:10.422Z,23.30
2023-01-27T08:19:37.398Z,20.30
2023-01-27T08:22:04.763Z,16.93
2023-01-27T08:24:31.814Z,17.23
2023-01-27T08:26:59.076Z,17.90
2023-01-27T08:29:26.052Z,19.30
2023-01-27T08:31:53.275Z,19.83
2023-01-27T08:34:20.257Z,20.63
2023-01-27T08:36:47.514Z,15.70
2023-01-27T08:39:14.421Z,24.20
2023-01-27T08:41:41.688Z,72.17
2023-01-27T08:44:08.622Z,16.80
2023-01-27T08:46:35.996Z,16.43
2023-01-27T08:49:03.044Z,15.30
2023-01-27T08:51:30.638Z,13.77
2023-01-27T08:53:57.830Z,13.60
2023-01-27T08:56:25.197Z,14.90
2023-01-27T08:58:52.549Z,14.77
2023-01-27T09:01:20.750Z,13.20
2023-01-27T09:03:47.925Z,14.13
2023-01-27T09:06:16.253Z,16.30
2023-01-27T09:08:44.179Z,13.27
2023-01-27T09:11:14.828Z,11.50
2023-01-27T09:13:42.190Z,18.50
2023-01-27T09:16:09.900Z,15.60
2023-01-27T09:18:37.111Z,11.77
2023-01-27T09:21:05.368Z,11.17
2023-01-27T09:23:33.512Z,12.77
2023-01-27T09:26:00.788Z,11.93
2023-01-27T09:28:27.866Z,11.67
2023-01-27T09:30:58.967Z,13.57
2023-01-27T09:33:26.725Z,14.93
2023-01-27T09:36:14.805Z,12.53
2023-01-27T09:38:44.323Z,12.53
2023-01-27T09:41:43.000Z,11.97
2023-01-27T09:44:23.138Z,11.30
2023-01-27T09:47:31.069Z,11.47
2023-01-27T09:50:35.471Z,12.07
2023-01-27T09:53:05.639Z,13.07
2023-01-27T09:55:52.884Z,13.03
2023-01-27T09:58:41.932Z,12.97
2023-01-27T10:01:38.791Z,13.60
2023-01-27T10:04:21.004Z,13.47
2023-01-27T10:06:52.008Z,13.00
2023-01-27T10:09:49.712Z,12.90
2023-01-27T10:12:16.672Z,12.07
2023-01-27T10:14:58.303Z,12.83
2023-01-27T10:17:35.056Z,13.03
2023-01-27T10:20:21.100Z,14.23
2023-01-27T10:23:25.409Z,14.30
2023-01-27T10:26:17.117Z,13.87
2023-01-27T10:28:50.719Z,13.73
2023-01-27T10:31:27.048Z,16.20
2023-01-27T10:33:56.323Z,14.60
2023-01-27T10:36:30.086Z,14.47
2023-01-27T10:39:15.293Z,12.33
2023-01-27T10:41:54.625Z,13.53
2023-01-27T10:45:02.056Z,13.50
2023-01-27T10:47:36.905Z,13.13
2023-01-27T10:50:21.768Z,13.50
2023-01-27T10:52:56.551Z,14.27
2023-01-27T10:55:27.358Z,12.67
2023-01-27T10:58:01.285Z,13.13
2023-01-27T11:00:57.812Z,13.43
2023-01-27T11:03:26.573Z,14.20
2023-01-27T11:06:05.041Z,15.13
2023-01-27T11:08:37.877Z,13.10
2023-01-27T11:11:25.945Z,12.10
2023-01-27T11:14:04.735Z,12.27
2023-01-27T11:16:35.845Z,11.40
2023-01-27T11:19:37.505Z,12.00
2023-01-27T11:22:09.417Z,12.60
2023-01-27T11:25:02.411Z,12.23
2023-01-27T11:27:51.027Z,12.57
2023-01-27T11:30:24.429Z,12.23
2023-01-27T11:32:59.872Z,12.73
2023-01-27T11:35:27.275Z,10.47
2023-01-27T11:38:06.347Z,10.43
2023-01-27T11:40:42.667Z,12.33
2023-01-27T11:43:15.558Z,10.57
2023-01-27T11:45:45.238Z,10.87
2023-01-27T11:48:15.149Z,11.47
2023-01-27T11:50:43.449Z,11.50
2023-01-27T11:53:36.882Z,11.73
2023-01-27T11:56:07.662Z,10.30
2023-01-27T11:58:41.328Z,11.30
2023-01-27T12:01:19.850Z,11.27
2023-01-27T12:03:46.845Z,10.70
2023-01-27T12:06:19.442Z,10.60
2023-01-27T12:08:49.650Z,12.30
2023-01-27T12:11:28.582Z,12.40
2023-01-27T12:13:58.384Z,10.70
2023-01-27T12:16:42.838Z,10.97
2023-01-27T12:19:32.389Z,14.93
2023-01-27T12:22:01.812Z,10.00
2023-01-27T12:24:34.963Z,14.80
2023-01-27T12:27:04.501Z,9.80
2023-01-27T12:29:44.043Z,10.47
2023-01-27T12:32:22.524Z,43.53
2023-01-27T12:34:52.434Z,11.90
2023-01-27T12:37:29.102Z,9.67
2023-01-27T12:40:02.680Z,9.63
2023-01-27T12:43:02.331Z,8.47
2023-01-27T12:45:38.289Z,9.67
2023-01-27T12:48:14.858Z,9.37
2023-01-27T12:50:46.283Z,33.97
2023-01-27T12:53:18.730Z,10.70
2023-01-27T12:56:07.371Z,8.70
2023-01-27T12:58:41.994Z,9.93
2023-01-27T13:01:37.784Z,10.40
2023-01-27T13:04:16.860Z,9.90
2023-01-27T13:06:44.868Z,11.47
2023-01-27T13:09:35.751Z,10.23
2023-01-27T13:12:12.884Z,10.97
2023-01-27T13:14:42.028Z,9.37
2023-01-27T13:17:48.219Z,10.30
2023-01-27T13:20:41.845Z,9.60
2023-01-27T13:23:19.411Z,10.07
2023-01-27T13:25:49.473Z,11.37
2023-01-27T13:28:20.800Z,9.23
2023-01-27T13:30:52.615Z,8.77
2023-01-27T13:33:42.633Z,10.63
2023-01-27T13:36:28.044Z,11.23
2023-01-27T13:39:00.716Z,8.10
2023-01-27T13:41:43.640Z,9.40
2023-01-27T13:44:29.278Z,8.30
2023-01-27T13:47:03.476Z,9.20
2023-01-27T13:49:41.521Z,8.50
2023-01-27T13:52:10.292Z,8.33
2023-01-27T13:54:37.396Z,8.77
2023-01-27T13:57:04.703Z,9.13
2023-01-27T13:59:31.606Z,9.23
2023-01-27T14:02:26.747Z,8.20
2023-01-27T14:05:15.697Z,9.40
2023-01-27T14:07:52.742Z,8.40
2023-01-27T14:10:25.855Z,8.03
2023-01-27T14:13:14.198Z,8.53
2023-01-27T14:15:55.740Z,8.33
2023-01-27T14:18:27.652Z,7.90
2023-01-27T14:21:34.685Z,8.70
2023-01-27T14:24:10.027Z,7.63
2023-01-27T14:27:06.114Z,7.63
2023-01-27T14:29:51.417Z,7.20
2023-01-27T14:32:26.593Z,6.93
2023-01-27T14:35:16.869Z,6.87
2023-01-27T14:38:07.102Z,7.90
2023-01-27T14:40:46.097Z,7.90
2023-01-27T14:43:18.902Z,7.27
2023-01-27T14:46:16.765Z,7.37
2023-01-27T14:48:50.766Z,6.87
2023-01-27T14:51:26.964Z,7.03
2023-01-27T14:53:56.913Z,7.50
2023-01-27T14:56:45.906Z,7.33
2023-01-27T14:59:39.106Z,9.60
2023-01-27T15:02:06.416Z,9.17
2023-01-27T15:04:44.357Z,7.70
2023-01-27T15:07:32.919Z,7.73
2023-01-27T15:10:06.390Z,10.80
2023-01-27T15:12:48.095Z,11.90
2023-01-27T15:15:33.425Z,12.03
2023-01-27T15:18:37.911Z,11.33
2023-01-27T15:21:10.637Z,11.03
2023-01-27T15:23:52.651Z,13.60
2023-01-27T15:26:23.708Z,10.33
2023-01-27T15:28:51.622Z,10.13
2023-01-27T15:31:18.596Z,11.50
2023-01-27T15:33:51.607Z,10.23
2023-01-27T15:36:27.752Z,10.30
2023-01-27T15:39:10.546Z,11.17
2023-01-27T15:42:03.780Z,10.70
2023-01-27T15:44:33.518Z,10.83
2023-01-27T15:47:13.587Z,10.93
2023-01-27T15:49:45.719Z,11.10
2023-01-27T15:52:42.891Z,12.23
2023-01-27T15:55:29.603Z,14.03
2023-01-27T15:58:11.918Z,12.73
2023-01-27T16:00:42.416Z,11.73
2023-01-27T16:03:21.663Z,13.57
2023-01-27T16:05:52.317Z,12.97
2023-01-27T16:08:20.076Z,13.83
2023-01-27T16:10:47.363Z,13.63
2023-01-27T16:13:28.979Z,14.70
2023-01-27T16:16:19.234Z,12.10
2023-01-27T16:19:05.288Z,11.17
2023-01-27T16:21:41.428Z,11.63
2023-01-27T16:24:17.659Z,13.20
2023-01-27T16:27:14.415Z,17.97
2023-01-27T16:29:53.247Z,15.80
2023-01-27T16:32:22.596Z,28.57
2023-01-27T16:34:52.950Z,9.47
2023-01-27T16:37:27.084Z,9.20
2023-01-27T16:40:06.962Z,8.80
2023-01-27T16:42:45.948Z,8.33
2023-01-27T16:45:39.058Z,7.70
2023-01-27T16:48:21.325Z,7.40
2023-01-27T16:50:49.127Z,7.53
2023-01-27T16:53:21.602Z,7.73
2023-01-27T16:56:04.491Z,8.03
2023-01-27T16:58:45.834Z,6.97
2023-01-27T17:01:43.451Z,7.00
2023-01-27T17:04:20.358Z,8.03
2023-01-27T17:06:52.394Z,7.37
2023-01-27T17:09:28.355Z,6.33
2023-01-27T17:11:55.781Z,7.33
2023-01-27T17:14:49.244Z,7.00
2023-01-27T17:17:18.661Z,7.30
2023-01-27T17:19:50.639Z,9.07
2023-01-27T17:22:22.986Z,8.70
2023-01-27T17:24:55.749Z,8.27
2023-01-27T17:27:34.986Z,8.70
2023-01-27T17:30:14.512Z,7.30
2023-01-27T17:32:46.688Z,8.50
2023-01-27T17:35:25.418Z,10.90
2023-01-27T17:37:53.244Z,12.93
2023-01-27T17:40:22.300Z,15.10
2023-01-27T17:42:49.758Z,13.73
2023-01-27T17:45:21.887Z,11.43
2023-01-27T17:47:49.506Z,15.13
2023-01-27T17:50:34.807Z,16.50
2023-01-27T17:53:04.901Z,15.57
2023-01-27T17:55:32.308Z,13.47
2023-01-27T17:58:07.471Z,11.20
2023-01-27T18:00:40.141Z,10.67
2023-01-27T18:03:21.814Z,9.20
2023-01-27T18:05:52.906Z,8.27
2023-01-27T18:08:20.606Z,11.20
2023-01-27T18:10:48.001Z,14.50
2023-01-27T18:13:17.915Z,19.33
2023-01-27T18:15:58.985Z,12.50
2023-01-27T18:18:27.377Z,10.43
2023-01-27T18:20:57.402Z,10.60
2023-01-27T18:23:27.815Z,12.57
2023-01-27T18:26:02.637Z,12.77
2023-01-27T18:28:34.193Z,14.23
2023-01-27T18:31:02.021Z,15.20
2023-01-27T18:33:29.214Z,16.40
2023-01-27T18:36:00.794Z,33.67
2023-01-27T18:38:33.638Z,67.30
2023-01-27T18:41:17.814Z,99.07
2023-01-27T18:43:44.766Z,88.90
2023-01-27T18:46:12.069Z,59.33
2023-01-27T18:48:40.210Z,60.30
2023-01-27T18:51:16.721Z,40.30
2023-01-27T18:53:43.915Z,31.63
2023-01-27T18:56:11.536Z,26.47
2023-01-27T18:58:39.338Z,18.97
2023-01-27T19:01:14.805Z,21.67
2023-01-27T19:03:42.148Z,29.33
2023-01-27T19:06:16.411Z,33.80
2023-01-27T19:08:44.192Z,28.47
2023-01-27T19:11:15.269Z,34.73
2023-01-27T19:13:44.542Z,30.20
2023-01-27T19:16:16.684Z,28.20
2023-01-27T19:18:44.985Z,33.77
2023-01-27T19:21:16.135Z,37.40
2023-01-27T19:23:44.829Z,36.03
2023-01-27T19:26:20.465Z,20.67
2023-01-27T19:28:50.405Z,16.50
2023-01-27T19:31:18.113Z,17.60
2023-01-27T19:33:45.564Z,17.27
2023-01-27T19:36:33.032Z,20.07
2023-01-27T19:39:06.464Z,17.80
2023-01-27T19:41:34.366Z,16.77
2023-01-27T19:44:01.410Z,19.10
2023-01-27T19:46:28.809Z,19.00
2023-01-27T19:48:55.909Z,22.07
2023-01-27T19:51:24.176Z,23.87
2023-01-27T19:53:51.139Z,23.70
2023-01-27T19:56:23.200Z,26.63
2023-01-27T19:58:52.822Z,24.47
2023-01-27T20:01:22.450Z,22.97
2023-01-27T20:03:50.075Z,20.83
2023-01-27T20:06:26.887Z,20.37
2023-01-27T20:08:55.610Z,27.10
2023-01-27T20:11:42.015Z,19.93
2023-01-27T20:14:14.571Z,15.57
2023-01-27T20:16:42.963Z,14.67
2023-01-27T20:19:13.235Z,15.30
2023-01-27T20:21:41.821Z,14.27
2023-01-27T20:24:16.702Z,14.17
2023-01-27T20:26:44.248Z,15.10
2023-01-27T20:29:11.381Z,16.60
2023-01-27T20:31:39.621Z,17.97
2023-01-27T20:34:07.131Z,18.27
2023-01-27T20:36:34.935Z,18.10
2023-01-27T20:39:02.081Z,20.37
2023-01-27T20:41:29.685Z,25.90
2023-01-27T20:44:00.341Z,22.43
2023-01-27T20:46:29.000Z,15.53
2023-01-27T20:48:56.677Z,17.60
2023-01-27T20:51:24.159Z,19.00
2023-01-27T20:53:51.111Z,18.33
2023-01-27T20:56:21.243Z,17.53
2023-01-27T20:58:48.931Z,15.77
2023-01-27T21:01:21.925Z,16.63
2023-01-27T21:03:50.402Z,15.50
2023-01-27T21:06:19.944Z,15.90
2023-01-27T21:08:50.406Z,16.33
2023-01-27T21:11:20.129Z,16.67
2023-01-27T21:13:48.477Z,18.77
2023-01-27T21:16:15.770Z,16.47
2023-01-27T21:18:44.072Z,17.20
2023-01-27T21:21:30.908Z,17.73
2023-01-27T21:24:00.214Z,18.07
2023-01-27T21:26:28.370Z,17.40
2023-01-27T21:28:56.351Z,17.80
2023-01-27T21:31:30.275Z,16.83
2023-01-27T21:33:59.436Z,17.60
2023-01-27T21:36:26.957Z,17.57
2023-01-27T21:38:54.098Z,18.13
2023-01-27T21:41:41.509Z,17.37
2023-01-27T21:44:41.776Z,20.50
2023-01-27T21:47:11.960Z,19.13
2023-01-27T21:49:59.975Z,19.50
2023-01-27T21:52:39.501Z,20.23
2023-01-27T21:55:14.776Z,19.47
2023-01-27T21:57:43.365Z,19.83
2023-01-27T22:00:11.935Z,21.47
2023-01-27T22:02:39.326Z,19.90
2023-01-27T22:05:07.140Z,19.80
2023-01-27T22:07:38.239Z,19.60
2023-01-27T22:10:07.500Z,21.73
2023-01-27T22:12:34.745Z,19.97
2023-01-27T22:15:01.754Z,20.93
2023-01-27T22:17:29.061Z,19.80
2023-01-27T22:19:56.005Z,19.03
2023-01-27T22:22:23.240Z,18.27
2023-01-27T22:24:50.161Z,20.40
2023-01-27T22:27:17.404Z,21.30
2023-01-27T22:29:44.324Z,20.53
2023-01-27T22:32:11.716Z,19.90
2023-01-27T22:34:38.660Z,19.97
2023-01-27T22:37:05.983Z,18.93
2023-01-27T22:39:33.216Z,19.57
2023-01-27T22:42:00.462Z,19.30
2023-01-27T22:44:27.437Z,19.23
2023-01-27T22:46:54.656Z,21.27
2023-01-27T22:49:21.590Z,21.27
2023-01-27T22:51:48.977Z,20.33
2023-01-27T22:54:15.965Z,20.00
2023-01-27T22:56:43.347Z,20.33
2023-01-27T22:59:13.497Z,18.83
2023-01-27T23:01:40.849Z,22.07
2023-01-27T23:04:07.846Z,18.93
2023-01-27T23:06:35.145Z,21.23
2023-01-27T23:09:02.057Z,19.57
2023-01-27T23:11:29.314Z,19.03
2023-01-27T23:13:56.337Z,20.70
2023-01-27T23:16:23.630Z,19.43
2023-01-27T23:18:50.751Z,18.60
2023-01-27T23:21:18.080Z,16.73
2023-01-27T23:23:45.019Z,18.67
2023-01-27T23:26:13.435Z,17.63
2023-01-27T23:28:40.524Z,16.43
2023-01-27T23:31:13.454Z,17.40
2023-01-27T23:33:41.992Z,17.43
2023-01-27T23:36:10.429Z,17.77
2023-01-27T23:38:37.772Z,17.10
2023-01-27T23:41:13.670Z,18.27
2023-01-27T23:43:40.745Z,17.50
2023-01-27T23:46:08.041Z,18.00
2023-01-27T23:48:35.252Z,17.43
2023-01-27T23:51:07.369Z,17.73
2023-01-27T23:53:34.288Z,18.13
2023-01-27T23:56:01.770Z,17.13
2023-01-27T23:58:28.753Z,18.70
